Latest Coastal Weather Observations for Troughton Island

IDD60701

Issued at 7:51 pm CST Friday 27 May 2016 (issued every 10 minutes, with the page automatically refreshed every 10 minutes)

About coastal observations | Map of coastal stations | Coastal observations for NT | Marine services | Other Formats
Station Details ID: 001007 Name: TROUGHTON ISLAND Lat: -13.75 Lon: 126.15 Height: 6.0 m
Data from the previous 72 hours. | See also: Recent months at Troughton Island
Date/Time
CST
Temp

°C
Wind Pressure Rain
since 9am
mm
Weather Cloud Vis
km
Sea
Height
m
Swell
Dir
 
Speed
knots
Gust
knots
hPa Trend Height
m
Period
s
Dir
27/07:30pm 29.1 WNW 11 12 1012.1 - 0.0 - - - - - - -
27/07:00pm 29.3 WNW 10 12 1011.8 - 0.0 - - - - - - -
27/06:30pm 29.9 WNW 10 12 1011.6 - 0.0 - - - - - - -
27/06:00pm 30.5 WNW 10 11 1011.4 - 0.0 - - - - - - -
27/05:30pm 31.1 WNW 9 11 1011.2 - 0.0 - - - - - - -
27/05:00pm 31.5 WNW 9 11 1011.3 - 0.0 - - - - - - -
27/04:30pm 31.8 WNW 9 10 1011.3 - 0.0 - - - - - - -
27/04:00pm 32.0 NW 8 9 1011.4 - 0.0 - - - - - - -
27/03:30pm 32.0 WNW 7 9 1011.6 - 0.0 - - - - - - -
27/03:00pm 31.6 WNW 7 8 1011.8 - 0.0 - - - - - - -
27/02:30pm 32.4 W 8 10 1012.2 - 0.0 - - - - - - -
27/02:00pm 31.6 W 7 9 1012.5 - 0.0 - - - - - - -
27/01:30pm 32.0 W 8 10 1012.9 - 0.0 - - - - - - -
27/01:00pm 32.6 WSW 9 10 1013.4 - 0.0 - - - - - - -
27/12:30pm 32.4 WSW 9 11 1013.8 - 0.0 - - - - - - -
27/12:00pm 32.6 SW 9 11 1014.4 - 0.0 - - - - - - -
27/11:30am 31.9 SW 9 11 1014.7 - 0.0 - - - - - - -
27/11:00am 32.0 SW 11 13 1015.0 - 0.0 - - - - - - -
27/10:30am 31.4 SSW 10 12 1015.2 - 0.0 - - - - - - -
27/10:00am 31.0 SSW 10 12 1015.2 - 0.0 - - - - - - -
27/09:30am 30.4 SSW 10 12 1015.0 - 0.0 - - - - - - -
27/09:00am 29.9 SW 10 12 1014.9 - 0.0 - - - - - - -
27/08:30am 29.5 SW 10 12 1014.6 - 0.0 - - - - - - -
27/08:00am 28.9 SW 9 11 1014.3 - 0.0 - - - - - - -
27/07:30am 28.5 SW 8 9 1014.1 - 0.0 - - - - - - -
27/07:00am 28.3 SW 9 10 1013.8 - 0.0 - - - - - - -
27/06:30am 28.3 SSW 9 11 1013.7 - 0.0 - - - - - - -
27/06:00am 28.3 SSW 8 10 1013.3 - 0.0 - - - - - - -
27/05:30am 28.5 SSW 9 11 1013.0 - 0.0 - - - - - - -
27/05:00am 28.6 SSW 10 11 1012.8 - 0.0 - - - - - - -
27/04:30am 28.7 SW 9 11 1012.9 - 0.0 - - - - - - -
27/04:00am 28.7 SW 10 13 1013.2 - 0.0 - - - - - - -
27/03:30am 28.8 WSW 11 12 1013.4 - 0.0 - - - - - - -
27/03:00am 28.7 SW 11 13 1013.7 - 0.0 - - - - - - -
27/02:30am 28.7 WSW 10 12 1013.8 - 0.0 - - - - - - -
27/02:00am 28.7 WSW 9 10 1014.0 - 0.0 - - - - - - -
27/01:30am 28.7 WSW 8 9 1014.0 - 0.0 - - - - - - -
27/01:00am 28.5 WSW 6 7 1013.8 - 0.0 - - - - - - -
27/12:30am 28.4 WSW 6 7 1013.8 - 0.0 - - - - - - -
27/12:00am 28.1 WSW 6 7 1013.9 - 0.0 - - - - - - -
 
Date/Time
CST
Temp

°C
Wind Pressure Rain
since 9am
mm
Weather Cloud Vis
km
Sea
Height
m
Swell
Dir
 
Speed
knots
Gust
knots
hPa Trend Height
m
Period
s
Dir
26/11:30pm 28.1 WSW 6 6 1013.9 - 0.0 - - - - - - -
26/11:00pm 28.2 W 7 8 1014.1 - 0.0 - - - - - - -
26/10:30pm 28.1 W 7 8 1014.0 - 0.0 - - - - - - -
26/10:00pm 28.1 WNW 7 8 1014.1 - 0.0 - - - - - - -
26/09:30pm 28.2 WNW 7 7 1014.1 - 0.0 - - - - - - -
26/09:00pm 28.3 WNW 7 8 1013.8 - 0.0 - - - - - - -
26/08:30pm 28.4 NW 7 8 1013.6 - 0.0 - - - - - - -
26/08:00pm 28.6 NW 8 9 1013.3 - 0.0 - - - - - - -
26/07:30pm 28.9 WNW 9 10 1013.0 - 0.0 - - - - - - -
26/07:00pm 29.0 WNW 9 11 1012.6 - 0.0 - - - - - - -
26/06:30pm 29.7 NW 9 11 1012.4 - 0.0 - - - - - - -
26/06:00pm 30.5 WNW 9 10 1012.1 - 0.0 - - - - - - -
26/05:30pm 31.0 WNW 8 9 1012.0 - 0.0 - - - - - - -
26/05:00pm 31.3 WNW 7 8 1011.8 - 0.0 - - - - - - -
26/04:30pm 31.7 WNW 7 8 1011.8 - 0.0 - - - - - - -
26/04:00pm 31.5 WNW 6 7 1012.0 - 0.0 - - - - - - -
26/03:30pm 31.6 W 6 7 1012.2 - 0.0 - - - - - - -
26/03:00pm 31.1 W 5 7 1012.3 - 0.0 - - - - - - -
26/02:30pm 31.3 W 6 7 1012.5 - 0.0 - - - - - - -
26/02:00pm 31.2 W 6 7 1012.9 - 0.0 - - - - - - -
26/01:30pm 31.3 WSW 5 7 1013.4 - 0.0 - - - - - - -
26/01:00pm 31.1 WSW 5 6 1013.9 - 0.0 - - - - - - -
26/12:30pm 30.8 SW 5 7 1014.3 - 0.0 - - - - - - -
26/12:00pm 31.2 SW 5 6 1014.6 - 0.0 - - - - - - -
26/11:30am 30.7 SSW 6 7 1014.9 - 0.0 - - - - - - -
26/11:00am 30.5 SSW 6 7 1015.0 - 0.0 - - - - - - -
26/10:30am 30.4 SSW 6 7 1015.1 - 0.0 - - - - - - -
26/10:00am 30.0 SSW 5 6 1015.1 - 0.0 - - - - - - -
26/09:30am 29.8 S 5 6 1015.0 - 0.0 - - - - - - -
26/09:00am 29.4 SSW 4 5 1014.7 - 0.0 - - - - - - -
26/08:30am 29.0 S 4 5 1014.4 - 0.0 - - - - - - -
26/08:00am 28.0 S 4 6 1014.0 - 0.0 - - - - - - -
26/07:30am 26.7 SSW 4 5 1013.7 - 0.0 - - - - - - -
26/07:00am 27.3 S 4 5 1013.4 - 0.0 - - - - - - -
26/06:30am 27.4 SSW 5 6 1013.2 - 0.0 - - - - - - -
26/06:00am 27.0 SSW 3 4 1013.0 - 0.0 - - - - - - -
26/05:30am 27.1 S 3 4 1012.9 - 0.0 - - - - - - -
26/05:00am 26.9 S 4 4 1012.7 - 0.0 - - - - - - -
26/04:30am 27.1 S 4 5 1012.8 - 0.0 - - - - - - -
26/04:00am 27.2 CALM 0 0 1012.8 - 0.0 - - - - - - -
26/03:30am 27.2 CALM 0 0 1012.8 - 0.0 - - - - - - -
26/03:00am 27.5 CALM 0 0 1012.9 - 0.0 - - - - - - -
26/02:30am 27.5 CALM 0 0 1013.0 - 0.0 - - - - - - -
26/02:00am 27.0 CALM 0 0 1013.2 - 0.0 - - - - - - -
26/01:30am 27.4 CALM 0 0 1013.3 - 0.0 - - - - - - -
26/01:00am 27.6 CALM 0 0 1013.3 - 0.0 - - - - - - -
26/12:30am 27.6 CALM 0 0 1013.4 - 0.0 - - - - - - -
26/12:00am 27.8 CALM 0 0 1013.6 - 0.0 - - - - - - -
 
Date/Time
CST
Temp

°C
Wind Pressure Rain
since 9am
mm
Weather Cloud Vis
km
Sea
Height
m
Swell
Dir
 
Speed
knots
Gust
knots
hPa Trend Height
m
Period
s
Dir
25/11:30pm 28.3 CALM 0 0 1013.7 - 0.0 - - - - - - -
25/11:00pm 28.0 CALM 0 0 1013.6 - 0.0 - - - - - - -
25/10:30pm 27.9 CALM 0 0 1013.5 - 0.0 - - - - - - -
25/10:00pm 27.9 SSW 3 4 1013.4 - 0.0 - - - - - - -
25/09:30pm 27.8 WSW 4 4 1013.2 - 0.0 - - - - - - -
25/09:00pm 27.8 WNW 4 5 1013.0 - 0.0 - - - - - - -
25/08:30pm 28.1 WNW 3 4 1012.7 - 0.0 - - - - - - -
25/08:00pm 27.8 NW 5 6 1012.4 - 0.0 - - - - - - -
25/07:30pm 28.5 WNW 6 7 1012.2 - 0.0 - - - - - - -
25/07:00pm 28.8 WNW 6 7 1011.8 - 0.0 - - - - - - -
25/06:30pm 29.6 NW 6 7 1011.6 - 0.0 - - - - - - -
25/06:00pm 30.5 NW 6 8 1011.4 - 0.0 - - - - - - -
25/05:30pm 30.7 WNW 6 7 1011.3 - 0.0 - - - - - - -
25/05:00pm 31.1 WNW 7 8 1011.0 - 0.0 - - - - - - -
25/04:30pm 31.4 WNW 7 8 1010.9 - 0.0 - - - - - - -
25/04:00pm 30.9 WNW 6 8 1010.8 - 0.0 - - - - - - -
25/03:30pm 31.3 WNW 6 7 1010.9 - 0.0 - - - - - - -
25/03:00pm 31.2 W 5 6 1011.2 - 0.0 - - - - - - -
25/02:30pm 31.0 WSW 6 7 1011.3 - 0.0 - - - - - - -
25/02:00pm 31.2 WSW 5 7 1011.7 - 0.0 - - - - - - -
25/01:30pm 31.7 WSW 5 7 1012.0 - 0.0 - - - - - - -
25/01:00pm 30.9 WSW 5 6 1012.4 - 0.0 - - - - - - -
25/12:30pm 30.7 SW 5 7 1012.7 - 0.0 - - - - - - -
25/12:00pm 31.2 SW 5 7 1013.1 - 0.0 - - - - - - -
25/11:30am 30.3 SSW 5 6 1013.4 - 0.0 - - - - - - -
25/11:00am 30.3 SW 5 6 1013.7 - 0.0 - - - - - - -
25/10:30am 30.1 SW 5 7 1013.8 - 0.0 - - - - - - -
25/10:00am 30.0 SW 5 6 1013.8 - 0.0 - - - - - - -
25/09:30am 29.6 SW 4 6 1013.7 - 0.0 - - - - - - -
25/09:00am 29.2 SW 4 5 1013.6 - 0.0 - - - - - - -
25/08:30am 28.7 SSW 4 5 1013.4 - 0.0 - - - - - - -
25/08:00am 27.7 CALM 0 0 1013.2 - 0.0 - - - - - - -
25/07:30am 26.9 CALM 0 0 1013.0 - 0.0 - - - - - - -
25/07:00am 27.0 CALM 0 0 1012.5 - 0.0 - - - - - - -
25/06:30am 27.2 CALM 0 0 1012.2 - 0.0 - - - - - - -
25/06:00am 27.2 CALM 0 0 1012.0 - 0.0 - - - - - - -
25/05:30am 27.4 S 3 4 1011.9 - 0.0 - - - - - - -
25/05:00am 27.4 SSW 4 5 1011.9 - 0.0 - - - - - - -
25/04:30am 27.4 SSW 4 4 1011.9 - 0.0 - - - - - - -
25/04:00am 27.5 CALM 0 4 1011.9 - 0.0 - - - - - - -
25/03:30am 27.6 SW 3 4 1012.2 - 0.0 - - - - - - -
25/03:00am 27.7 SSW 4 6 1012.3 - 0.0 - - - - - - -
25/02:30am 27.5 SSW 4 6 1012.5 - 0.0 - - - - - - -
25/02:00am 27.4 CALM 0 0 1012.5 - 0.0 - - - - - - -
25/01:30am 27.3 CALM 0 0 1012.8 - 0.0 - - - - - - -
25/01:00am 27.6 CALM 0 0 1012.9 - 0.0 - - - - - - -
25/12:30am 28.1 CALM 0 0 1013.0 - 0.0 - - - - - - -
25/12:00am 28.0 ESE 4 4 1013.0 - 0.0 - - - - - - -
 
Date/Time
CST
Temp

°C
Wind Pressure Rain
since 9am
mm
Weather Cloud Vis
km
Sea
Height
m
Swell
Dir
 
Speed
knots
Gust
knots
hPa Trend Height
m
Period
s
Dir
24/11:30pm 27.9 CALM 0 0 1013.0 - 0.0 - - - - - - -
24/11:00pm 27.6 CALM 0 0 1013.0 - 0.0 - - - - - - -
24/10:30pm 27.3 CALM 0 0 1012.9 - 0.0 - - - - - - -
24/10:00pm 28.4 N 3 4 1013.0 - 0.0 - - - - - - -
24/09:30pm 28.3 NNW 4 5 1012.9 - 0.0 - - - - - - -

Other Formats:

Comma delimited format used in spreadsheet applications
http://www.bom.gov.au/fwo/IDD60701/IDD60701.94102.axf

JavaScript Object Notation format (JSON) in row-major order
http://www.bom.gov.au/fwo/IDD60701/IDD60701.94102.json